createdAt,value
2023-03-18T00:02:50.834Z,8.64
2023-03-18T00:05:54.043Z,8.66
2023-03-18T00:09:00.858Z,8.64
2023-03-18T00:12:05.108Z,8.58
2023-03-18T00:15:09.629Z,8.51
2023-03-18T00:18:13.013Z,8.47
2023-03-18T00:21:19.622Z,8.45
2023-03-18T00:24:23.665Z,8.41
2023-03-18T00:27:26.427Z,8.37
2023-03-18T00:30:30.564Z,8.36
2023-03-18T00:33:33.741Z,8.40
2023-03-18T00:36:37.265Z,8.43
2023-03-18T00:39:44.305Z,8.46
2023-03-18T00:42:50.616Z,8.46
2023-03-18T00:45:55.498Z,8.46
2023-03-18T00:49:02.393Z,8.47
2023-03-18T00:52:05.263Z,8.40
2023-03-18T00:55:10.638Z,8.35
2023-03-18T00:58:13.584Z,8.29
2023-03-18T01:01:18.282Z,8.35
2023-03-18T01:04:21.557Z,8.43
2023-03-18T01:07:25.208Z,8.43
2023-03-18T01:10:30.787Z,8.46
2023-03-18T01:13:34.343Z,8.51
2023-03-18T01:16:38.881Z,8.57
2023-03-18T01:19:42.373Z,8.59
2023-03-18T01:22:45.429Z,8.61
2023-03-18T01:25:49.909Z,8.64
2023-03-18T01:28:55.379Z,8.72
2023-03-18T01:32:00.311Z,8.77
2023-03-18T01:35:05.702Z,8.84
2023-03-18T01:38:09.262Z,8.89
2023-03-18T01:41:13.576Z,8.87
2023-03-18T01:44:17.992Z,8.78
2023-03-18T01:47:21.696Z,8.78
2023-03-18T01:50:28.433Z,8.81
2023-03-18T01:53:45.182Z,8.76
2023-03-18T01:56:53.993Z,8.79
2023-03-18T01:59:58.968Z,8.84
2023-03-18T02:03:01.681Z,8.82
2023-03-18T02:06:04.749Z,8.87
2023-03-18T02:09:08.580Z,8.90
2023-03-18T02:12:14.502Z,8.78
2023-03-18T02:15:23.296Z,8.89
2023-03-18T02:18:31.247Z,8.91
2023-03-18T02:21:42.916Z,8.92
2023-03-18T02:24:57.046Z,8.93
2023-03-18T02:28:07.742Z,8.93
2023-03-18T02:31:14.047Z,8.88
2023-03-18T02:34:17.828Z,8.85
2023-03-18T02:37:22.831Z,8.87
2023-03-18T02:40:29.045Z,8.86
2023-03-18T02:43:37.896Z,8.74
2023-03-18T02:46:54.048Z,8.65
2023-03-18T02:49:57.958Z,8.66
2023-03-18T02:53:05.862Z,8.60
2023-03-18T02:56:09.255Z,8.58
2023-03-18T02:59:14.225Z,8.54
2023-03-18T03:02:43.051Z,8.55
2023-03-18T03:05:45.869Z,8.60
2023-03-18T03:08:48.605Z,8.65
2023-03-18T03:11:54.337Z,8.68
2023-03-18T03:15:00.724Z,8.67
2023-03-18T03:18:04.261Z,8.71
2023-03-18T03:21:07.836Z,8.71
2023-03-18T03:24:25.692Z,8.70
2023-03-18T03:27:31.590Z,8.72
2023-03-18T03:30:36.729Z,8.70
2023-03-18T03:33:41.383Z,8.79
2023-03-18T03:36:46.300Z,8.77
2023-03-18T03:39:49.011Z,8.77
2023-03-18T03:42:51.790Z,8.77
2023-03-18T03:46:03.294Z,8.83
2023-03-18T03:49:12.782Z,8.84
2023-03-18T03:52:15.445Z,8.84
2023-03-18T03:55:20.587Z,8.89
2023-03-18T03:58:23.835Z,8.88
2023-03-18T04:01:28.248Z,8.90
2023-03-18T04:04:31.931Z,8.88
2023-03-18T04:07:34.611Z,8.90
2023-03-18T04:10:40.814Z,8.93
2023-03-18T04:13:43.599Z,8.94
2023-03-18T04:16:47.623Z,8.91
2023-03-18T04:19:50.505Z,8.79
2023-03-18T04:22:53.152Z,8.73
2023-03-18T04:25:55.834Z,8.67
2023-03-18T04:28:58.690Z,8.66
2023-03-18T04:32:03.328Z,8.72
2023-03-18T04:35:06.889Z,8.75
2023-03-18T04:38:09.628Z,8.83
2023-03-18T04:41:12.294Z,8.87
2023-03-18T04:44:14.942Z,8.81
2023-03-18T04:47:19.494Z,8.71
2023-03-18T04:50:22.548Z,8.80
2023-03-18T04:53:29.118Z,8.72
2023-03-18T04:56:34.538Z,8.72
2023-03-18T04:59:37.223Z,8.73
2023-03-18T05:02:41.683Z,8.65
2023-03-18T05:05:44.338Z,8.83
2023-03-18T05:08:47.010Z,8.88
2023-03-18T05:11:52.238Z,8.80
2023-03-18T05:14:55.017Z,8.80
2023-03-18T05:17:59.361Z,8.78
2023-03-18T05:21:05.127Z,8.67
2023-03-18T05:24:12.022Z,8.79
2023-03-18T05:27:19.267Z,8.70
2023-03-18T05:30:23.369Z,8.67
2023-03-18T05:33:27.454Z,8.64
2023-03-18T05:36:30.737Z,8.67
2023-03-18T05:39:34.678Z,8.76
2023-03-18T05:42:49.405Z,8.75
2023-03-18T05:45:58.246Z,8.81
2023-03-18T05:49:02.266Z,8.79
2023-03-18T05:52:08.174Z,8.84
2023-03-18T05:55:13.909Z,8.79
2023-03-18T05:58:16.638Z,8.69
2023-03-18T06:01:20.378Z,8.79
2023-03-18T06:04:24.921Z,8.80
2023-03-18T06:07:28.003Z,8.68
2023-03-18T06:10:33.786Z,8.72
2023-03-18T06:13:36.591Z,8.83
2023-03-18T06:16:39.371Z,8.85
2023-03-18T06:19:44.964Z,8.83
2023-03-18T06:22:50.751Z,8.81
2023-03-18T06:25:53.425Z,8.91
2023-03-18T06:28:59.407Z,8.92
2023-03-18T06:32:03.830Z,8.94
2023-03-18T06:35:12.213Z,8.90
2023-03-18T06:38:16.664Z,8.90
2023-03-18T06:41:20.518Z,9.01
2023-03-18T06:44:24.562Z,8.99
2023-03-18T06:47:29.817Z,8.98
2023-03-18T06:50:39.556Z,8.99
2023-03-18T06:53:43.154Z,9.04
2023-03-18T06:56:46.778Z,9.08
2023-03-18T06:59:49.738Z,9.21
2023-03-18T07:02:53.168Z,9.26
2023-03-18T07:05:57.429Z,9.22
2023-03-18T07:09:04.327Z,9.26
2023-03-18T07:12:14.772Z,9.40
2023-03-18T07:15:20.247Z,9.48
2023-03-18T07:18:23.439Z,9.72
2023-03-18T07:21:29.349Z,9.90
2023-03-18T07:24:32.028Z,10.02
2023-03-18T07:27:34.697Z,10.04
2023-03-18T07:30:40.677Z,10.09
2023-03-18T07:33:43.427Z,10.18
2023-03-18T07:36:48.744Z,10.25
2023-03-18T07:39:53.034Z,10.29
2023-03-18T07:42:58.726Z,10.29
2023-03-18T07:46:02.291Z,10.23
2023-03-18T07:49:05.044Z,10.32
2023-03-18T07:52:10.514Z,10.36
2023-03-18T07:55:13.701Z,10.48
2023-03-18T07:58:16.400Z,10.76
2023-03-18T08:01:20.470Z,10.91
2023-03-18T08:04:26.118Z,11.04
2023-03-18T08:07:33.323Z,11.15
2023-03-18T08:10:36.656Z,11.22
2023-03-18T08:13:40.447Z,11.32
2023-03-18T08:16:43.389Z,11.38
2023-03-18T08:19:47.103Z,11.45
2023-03-18T08:22:51.492Z,11.57
2023-03-18T08:25:54.263Z,11.69
2023-03-18T08:28:57.335Z,11.79
2023-03-18T08:32:00.861Z,11.92
2023-03-18T08:35:05.187Z,12.00
2023-03-18T08:38:09.834Z,12.14
2023-03-18T08:41:12.506Z,12.40
2023-03-18T08:44:15.365Z,12.55
2023-03-18T08:47:18.017Z,12.66
2023-03-18T08:50:21.032Z,12.78
2023-03-18T08:53:25.043Z,12.88
2023-03-18T08:56:28.288Z,13.01
2023-03-18T08:59:31.407Z,13.13
2023-03-18T09:02:37.175Z,13.19
2023-03-18T09:05:40.265Z,13.28
2023-03-18T09:08:44.801Z,13.35
2023-03-18T09:11:49.901Z,13.50
2023-03-18T09:14:52.628Z,13.64
2023-03-18T09:18:11.703Z,13.85
2023-03-18T09:21:15.134Z,14.18
2023-03-18T09:24:19.212Z,14.44
2023-03-18T09:27:24.258Z,14.74
2023-03-18T09:30:31.472Z,15.15
2023-03-18T09:33:34.453Z,15.54
2023-03-18T09:36:37.231Z,15.98
2023-03-18T09:39:41.265Z,16.45
2023-03-18T09:42:56.618Z,16.80
2023-03-18T09:46:11.753Z,16.92
2023-03-18T09:49:31.495Z,16.85
2023-03-18T09:52:43.558Z,16.80
2023-03-18T09:55:55.719Z,16.56
2023-03-18T09:59:04.479Z,16.69
2023-03-18T10:02:21.560Z,16.63
2023-03-18T10:05:28.830Z,16.62
2023-03-18T10:08:43.008Z,16.60
2023-03-18T10:11:52.265Z,16.61
2023-03-18T10:15:08.716Z,16.61
2023-03-18T10:18:15.278Z,16.67
2023-03-18T10:21:27.964Z,16.74
2023-03-18T10:25:00.601Z,16.81
2023-03-18T10:28:26.847Z,16.87
2023-03-18T10:31:40.479Z,16.92
2023-03-18T10:34:57.969Z,16.99
2023-03-18T10:38:19.595Z,17.02
2023-03-18T10:41:28.777Z,17.09
2023-03-18T10:44:42.805Z,17.21
2023-03-18T10:47:49.412Z,17.32
2023-03-18T10:51:04.392Z,17.39
2023-03-18T10:54:13.687Z,17.53
2023-03-18T10:57:17.083Z,17.71
2023-03-18T11:00:28.990Z,17.84
2023-03-18T11:03:35.890Z,17.74
2023-03-18T11:06:45.192Z,17.52
2023-03-18T11:09:48.088Z,17.37
2023-03-18T11:12:50.783Z,17.35
2023-03-18T11:15:58.543Z,17.35
2023-03-18T11:19:25.671Z,17.49
2023-03-18T11:22:28.950Z,17.69
2023-03-18T11:25:32.473Z,17.96
2023-03-18T11:28:42.807Z,18.19
2023-03-18T11:31:58.113Z,18.29
2023-03-18T11:35:02.567Z,18.44
2023-03-18T11:38:06.919Z,18.54
2023-03-18T11:41:14.476Z,18.74
2023-03-18T11:44:19.105Z,18.97
2023-03-18T11:47:28.329Z,19.16
2023-03-18T11:50:41.636Z,19.24
2023-03-18T11:54:00.066Z,19.01
2023-03-18T11:57:12.143Z,19.03
2023-03-18T12:00:25.634Z,19.11
2023-03-18T12:03:58.628Z,19.17
2023-03-18T12:07:40.317Z,19.26
2023-03-18T12:10:48.588Z,19.29
2023-03-18T12:14:10.656Z,19.23
2023-03-18T12:17:32.826Z,19.21
2023-03-18T12:20:50.610Z,19.32
2023-03-18T12:24:11.012Z,19.48
2023-03-18T12:27:21.108Z,19.53
2023-03-18T12:30:58.983Z,19.61
2023-03-18T12:34:04.533Z,19.70
2023-03-18T12:37:25.593Z,19.80
2023-03-18T12:40:42.800Z,19.80
2023-03-18T12:44:12.570Z,19.72
2023-03-18T12:47:19.853Z,19.76
2023-03-18T12:50:27.308Z,19.69
2023-03-18T12:53:45.385Z,19.51
2023-03-18T12:56:53.544Z,19.23
2023-03-18T13:00:02.951Z,19.12
2023-03-18T13:03:23.419Z,19.21
2023-03-18T13:06:31.870Z,19.22
2023-03-18T13:09:39.703Z,19.52
2023-03-18T13:12:45.387Z,19.57
2023-03-18T13:15:52.448Z,19.68
2023-03-18T13:18:58.387Z,19.72
2023-03-18T13:22:13.286Z,19.77
2023-03-18T13:25:25.847Z,19.78
2023-03-18T13:28:49.666Z,19.88
2023-03-18T13:31:59.885Z,19.85
2023-03-18T13:35:19.253Z,19.91
2023-03-18T13:38:50.180Z,20.08
2023-03-18T13:42:23.935Z,20.04
2023-03-18T13:45:32.168Z,20.05
2023-03-18T13:48:37.484Z,20.18
2023-03-18T13:51:56.897Z,20.28
2023-03-18T13:55:28.677Z,20.35
2023-03-18T13:58:36.596Z,20.39
2023-03-18T14:02:00.273Z,20.37
2023-03-18T14:05:04.190Z,20.24
2023-03-18T14:08:46.145Z,20.11
2023-03-18T14:11:50.364Z,20.11
2023-03-18T14:15:03.745Z,20.22
2023-03-18T14:18:27.291Z,20.29
2023-03-18T14:21:32.627Z,20.36
2023-03-18T14:24:35.651Z,20.40
2023-03-18T14:27:47.426Z,20.47
2023-03-18T14:31:00.624Z,20.60
2023-03-18T14:34:23.740Z,20.83
2023-03-18T14:37:29.410Z,21.13
2023-03-18T14:40:38.533Z,21.39
2023-03-18T14:43:49.085Z,21.56
2023-03-18T14:47:00.784Z,21.61
2023-03-18T14:50:07.162Z,21.54
2023-03-18T14:53:26.679Z,21.46
2023-03-18T14:56:31.866Z,21.45
2023-03-18T14:59:34.521Z,21.45
2023-03-18T15:02:40.830Z,21.44
2023-03-18T15:05:46.480Z,21.37
2023-03-18T15:08:51.550Z,21.19
2023-03-18T15:11:54.770Z,21.02
2023-03-18T15:14:57.748Z,20.87
2023-03-18T15:18:06.005Z,20.49
2023-03-18T15:21:11.799Z,20.46
2023-03-18T15:24:19.662Z,20.28
2023-03-18T15:27:23.128Z,20.15
2023-03-18T15:30:28.701Z,20.10
2023-03-18T15:33:38.110Z,20.02
2023-03-18T15:36:42.934Z,20.06
2023-03-18T15:39:45.883Z,20.07
2023-03-18T15:42:48.781Z,20.06
2023-03-18T15:45:55.179Z,20.06
2023-03-18T15:49:02.245Z,20.00
2023-03-18T15:52:09.499Z,19.94
2023-03-18T15:55:28.911Z,19.85
2023-03-18T15:58:37.505Z,19.83
2023-03-18T16:01:41.838Z,19.60
2023-03-18T16:04:46.580Z,19.64
2023-03-18T16:07:49.778Z,19.58
2023-03-18T16:10:56.570Z,19.55
2023-03-18T16:13:59.755Z,19.57
2023-03-18T16:17:02.623Z,19.60
2023-03-18T16:20:15.591Z,19.56
2023-03-18T16:23:21.838Z,19.47
2023-03-18T16:26:24.836Z,19.39
2023-03-18T16:29:32.950Z,19.34
2023-03-18T16:32:36.038Z,19.28
2023-03-18T16:35:40.425Z,19.20
2023-03-18T16:38:43.133Z,19.06
2023-03-18T16:41:46.543Z,18.91
2023-03-18T16:44:52.526Z,18.76
2023-03-18T16:47:59.455Z,18.62
2023-03-18T16:51:04.555Z,18.50
2023-03-18T16:54:17.973Z,18.38
2023-03-18T16:57:23.546Z,18.28
2023-03-18T17:00:30.865Z,18.14
2023-03-18T17:03:37.070Z,17.97
2023-03-18T17:06:42.280Z,17.76
2023-03-18T17:09:44.957Z,17.54
2023-03-18T17:12:53.010Z,17.30
2023-03-18T17:15:58.672Z,17.05
2023-03-18T17:19:01.542Z,16.90
2023-03-18T17:22:12.349Z,16.69
2023-03-18T17:25:16.210Z,16.45
2023-03-18T17:28:24.916Z,16.26
2023-03-18T17:31:27.600Z,16.08
2023-03-18T17:34:33.557Z,15.92
2023-03-18T17:37:37.532Z,15.77
2023-03-18T17:40:42.738Z,15.58
2023-03-18T17:43:47.165Z,15.42
2023-03-18T17:46:56.948Z,15.26
2023-03-18T17:50:00.943Z,15.14
2023-03-18T17:53:05.939Z,15.03
2023-03-18T17:56:11.849Z,14.92
2023-03-18T17:59:16.171Z,14.80
2023-03-18T18:02:21.939Z,14.72
2023-03-18T18:05:25.137Z,14.64
2023-03-18T18:08:31.655Z,14.53
2023-03-18T18:11:37.869Z,14.49
2023-03-18T18:14:40.526Z,14.42
2023-03-18T18:17:43.540Z,14.33
2023-03-18T18:20:53.448Z,14.29
2023-03-18T18:23:57.516Z,14.21
2023-03-18T18:27:07.837Z,14.19
2023-03-18T18:30:16.468Z,14.09
2023-03-18T18:33:19.126Z,13.94
2023-03-18T18:36:22.635Z,13.75
2023-03-18T18:39:26.644Z,13.66
2023-03-18T18:42:29.300Z,13.55
2023-03-18T18:45:34.400Z,13.38
2023-03-18T18:48:43.150Z,13.46
2023-03-18T18:51:48.973Z,13.32
2023-03-18T18:54:53.346Z,13.20
2023-03-18T18:57:56.051Z,13.08
2023-03-18T19:01:00.002Z,12.95
2023-03-18T19:04:30.776Z,12.88
2023-03-18T19:07:40.748Z,12.81
2023-03-18T19:10:44.904Z,12.76
2023-03-18T19:13:47.692Z,12.72
2023-03-18T19:16:50.404Z,12.73
2023-03-18T19:19:53.712Z,12.68
2023-03-18T19:22:57.935Z,12.60
2023-03-18T19:26:06.161Z,12.56
2023-03-18T19:29:18.889Z,12.49
2023-03-18T19:32:23.134Z,12.43
2023-03-18T19:35:26.113Z,12.41
2023-03-18T19:38:31.271Z,12.30
2023-03-18T19:41:38.381Z,12.25
2023-03-18T19:44:45.004Z,12.24
2023-03-18T19:47:50.592Z,12.21
2023-03-18T19:50:55.534Z,12.19
2023-03-18T19:54:01.973Z,12.18
2023-03-18T19:57:14.039Z,12.15
2023-03-18T20:00:21.854Z,12.07
2023-03-18T20:03:27.134Z,11.97
2023-03-18T20:06:32.773Z,11.91
2023-03-18T20:09:39.388Z,11.84
2023-03-18T20:12:49.156Z,11.75
2023-03-18T20:15:52.021Z,11.76
2023-03-18T20:18:57.723Z,11.69
2023-03-18T20:22:02.534Z,11.65
2023-03-18T20:25:19.054Z,11.61
2023-03-18T20:28:25.656Z,11.45
2023-03-18T20:31:31.435Z,11.60
2023-03-18T20:34:38.096Z,11.58
2023-03-18T20:37:43.878Z,11.52
2023-03-18T20:40:47.812Z,11.46
2023-03-18T20:43:51.846Z,11.43
2023-03-18T20:47:00.700Z,11.40
2023-03-18T20:50:04.445Z,11.40
2023-03-18T20:53:17.882Z,11.42
2023-03-18T20:56:22.853Z,11.48
2023-03-18T20:59:30.013Z,11.53
2023-03-18T21:02:39.049Z,11.55
2023-03-18T21:05:44.724Z,11.60
2023-03-18T21:08:47.381Z,11.59
2023-03-18T21:11:53.063Z,11.59
2023-03-18T21:14:59.681Z,11.58
2023-03-18T21:18:02.346Z,11.57
2023-03-18T21:21:07.261Z,11.55
2023-03-18T21:24:31.126Z,11.55
2023-03-18T21:27:34.725Z,11.58
2023-03-18T21:30:38.743Z,11.59
2023-03-18T21:33:43.069Z,11.62
2023-03-18T21:36:45.666Z,11.59
2023-03-18T21:39:48.730Z,11.55
2023-03-18T21:42:52.469Z,11.51
2023-03-18T21:46:04.157Z,11.47
2023-03-18T21:49:12.938Z,11.42
2023-03-18T21:52:19.495Z,11.39
2023-03-18T21:55:22.455Z,11.26
2023-03-18T21:58:27.668Z,11.31
2023-03-18T22:01:34.995Z,11.27
2023-03-18T22:04:39.777Z,11.28
2023-03-18T22:07:45.955Z,11.26
2023-03-18T22:10:50.537Z,11.25
2023-03-18T22:13:53.970Z,11.25
2023-03-18T22:16:57.941Z,11.23
2023-03-18T22:20:03.469Z,11.21
2023-03-18T22:23:14.604Z,11.04
2023-03-18T22:26:21.623Z,11.18
2023-03-18T22:29:24.361Z,11.21
2023-03-18T22:32:37.761Z,11.21
2023-03-18T22:35:40.562Z,11.24
2023-03-18T22:38:43.442Z,11.22
2023-03-18T22:41:46.721Z,11.21
2023-03-18T22:44:52.333Z,11.24
2023-03-18T22:47:58.472Z,11.26
2023-03-18T22:51:05.401Z,11.22
2023-03-18T22:54:08.077Z,11.19
2023-03-18T22:57:18.111Z,11.15
2023-03-18T23:00:23.991Z,11.11
2023-03-18T23:03:30.567Z,11.07
2023-03-18T23:06:33.628Z,11.01
2023-03-18T23:09:56.176Z,10.85
2023-03-18T23:12:59.521Z,10.68
2023-03-18T23:16:04.298Z,10.56
2023-03-18T23:19:14.907Z,10.43
2023-03-18T23:22:23.679Z,10.30
2023-03-18T23:25:26.474Z,10.19
2023-03-18T23:28:29.127Z,10.14
2023-03-18T23:31:33.065Z,10.03
2023-03-18T23:34:39.682Z,9.91
2023-03-18T23:37:42.562Z,9.83
2023-03-18T23:40:45.679Z,9.74
2023-03-18T23:43:48.394Z,9.64
2023-03-18T23:46:55.337Z,9.56
2023-03-18T23:49:59.293Z,9.51
2023-03-18T23:53:02.360Z,9.50
2023-03-18T23:56:05.339Z,9.51
2023-03-18T23:59:10.399Z,9.49
